Time;durP1;ratioP1;P1;durP2;ratioP2;P2;SDS_P1;SDS_P2;PMS_P1;PMS_P2;Temp;Humidity;BMP_temperature;BMP_pressure;BME280_temperature;BME280_humidity;BME280_pressure;Samples;Min_cycle;Max_cycle;Signal;HPM_P1;HPM_P2
2023/05/18 00:01:21;;;;;;;;;24.25;19.75;;;;;8.16;100.00;98963.63;4810371;28;104009;-75
2023/05/18 00:03:52;;;;;;;;;20.00;19.00;;;;;8.19;100.00;98963.28;4814824;28;102011;-75
2023/05/18 00:06:41;;;;;;;;;21.50;18.75;;;;;8.18;100.00;98972.38;4817522;29;102490;-75
2023/05/18 00:09:40;;;;;;;;;18.25;17.25;;;;;8.20;100.00;98965.78;4821284;29;102513;-74
2023/05/18 00:12:22;;;;;;;;;19.75;17.00;;;;;8.16;100.00;98971.69;4816631;28;107705;-74
2023/05/18 00:15:21;;;;;;;;;23.00;18.00;;;;;8.18;100.00;98967.81;4811404;28;103479;-74
2023/05/18 00:17:49;;;;;;;;;15.25;15.25;;;;;8.23;100.00;98970.00;4818850;29;102537;-75
2023/05/18 00:20:17;;;;;;;;;19.25;17.75;;;;;8.17;100.00;98974.22;4822593;29;102342;-74
2023/05/18 00:22:47;;;;;;;;;16.00;14.50;;;;;8.21;100.00;98972.00;4820875;28;103869;-75
2023/05/18 00:25:13;;;;;;;;;16.00;15.00;;;;;8.19;100.00;98974.06;4818407;28;102308;-74
2023/05/18 00:27:40;;;;;;;;;20.00;19.00;;;;;8.12;100.00;98978.44;4818023;29;102385;-75
2023/05/18 00:30:08;;;;;;;;;16.00;14.25;;;;;8.10;100.00;98975.97;4820595;29;101970;-75
2023/05/18 00:32:35;;;;;;;;;25.25;18.00;;;;;8.06;100.00;98980.84;4815405;28;104658;-75
2023/05/18 00:35:02;;;;;;;;;19.25;17.50;;;;;8.12;100.00;98979.28;4818666;28;102565;-75
2023/05/18 00:37:29;;;;;;;;;19.00;18.00;;;;;8.05;100.00;98979.19;4820007;28;102240;-74
2023/05/18 00:39:56;;;;;;;;;14.75;12.00;;;;;8.10;100.00;98984.03;4823680;28;102783;-75
2023/05/18 00:42:23;;;;;;;;;16.75;14.50;;;;;8.07;100.00;98976.28;4812567;28;109625;-75
2023/05/18 00:44:50;;;;;;;;;15.25;14.25;;;;;8.13;100.00;98978.28;4814259;28;102129;-75
2023/05/18 00:47:19;;;;;;;;;15.75;15.00;;;;;8.07;100.00;98982.50;4818141;29;102177;-75
2023/05/18 00:49:46;;;;;;;;;20.75;18.00;;;;;8.00;100.00;98986.94;4817513;28;102417;-75
2023/05/18 00:52:15;;;;;;;;;21.25;18.25;;;;;8.06;100.00;98988.91;4815072;29;104050;-75
2023/05/18 00:54:42;;;;;;;;;18.75;16.75;;;;;8.02;100.00;98987.59;4819399;28;102426;-76
2023/05/18 00:57:09;;;;;;;;;12.50;11.00;;;;;8.09;100.00;98982.34;4819700;28;102119;-76
2023/05/18 00:59:36;;;;;;;;;17.50;13.75;;;;;7.98;100.00;98988.13;4817687;28;103514;-75
2023/05/18 01:02:04;;;;;;;;;19.50;17.50;;;;;7.95;100.00;98983.94;4798813;28;104121;-75
2023/05/18 01:04:31;;;;;;;;;16.25;12.25;;;;;8.08;100.00;98994.97;4808366;28;102444;-74
2023/05/18 01:07:07;;;;;;;;;16.25;12.25;;;;;8.07;100.00;98993.28;4816880;28;101983;-75
2023/05/18 01:09:49;;;;;;;;;15.75;14.00;;;;;8.02;100.00;98990.28;4814898;28;102805;-75
2023/05/18 01:12:48;;;;;;;;;12.75;12.00;;;;;8.08;100.00;98994.97;4813398;28;107771;-76
2023/05/18 01:15:55;;;;;;;;;15.75;15.25;;;;;8.14;100.00;99000.69;4814481;28;102549;-75
2023/05/18 01:19:07;;;;;;;;;13.00;11.50;;;;;8.06;100.00;98997.00;4816411;28;102361;-75
2023/05/18 01:21:52;;;;;;;;;11.00;10.00;;;;;8.11;100.00;99003.69;4815849;28;102460;-75
2023/05/18 01:24:30;;;;;;;;;9.00;8.00;;;;;8.16;100.00;99006.72;4815264;28;104017;-75
2023/05/18 01:26:59;;;;;;;;;11.00;9.00;;;;;8.18;100.00;99002.84;4814752;28;103502;-75
2023/05/18 01:29:29;;;;;;;;;16.75;15.75;;;;;8.12;100.00;99010.78;4810456;28;102354;-75
2023/05/18 01:31:57;;;;;;;;;9.00;8.50;;;;;8.18;100.00;99013.63;4815262;28;102362;-73
2023/05/18 01:34:24;;;;;;;;;5.25;4.50;;;;;8.18;100.00;99010.06;4815067;28;103066;-76
2023/05/18 01:36:51;;;;;;;;;5.25;4.00;;;;;8.22;100.00;99014.09;4817377;28;102251;-75
2023/05/18 01:39:18;;;;;;;;;5.50;5.50;;;;;8.17;100.00;99019.16;4817619;28;102396;-75
2023/05/18 01:41:54;;;;;;;;;16.75;13.00;;;;;7.96;100.00;99007.16;4820519;28;102290;-76
2023/05/18 01:44:33;;;;;;;;;15.00;12.50;;;;;8.00;100.00;99008.47;4818151;28;104167;-74
2023/05/18 01:47:11;;;;;;;;;15.25;14.00;;;;;8.05;100.00;99016.88;4819132;28;102540;-75
2023/05/18 01:49:43;;;;;;;;;13.00;11.25;;;;;7.99;100.00;99011.34;4817243;28;103129;-75
2023/05/18 01:52:21;;;;;;;;;18.75;15.25;;;;;8.00;100.00;99015.72;4821337;28;102006;-76
2023/05/18 01:54:55;;;;;;;;;15.25;14.00;;;;;7.94;100.00;99013.72;4822062;28;104004;-76
2023/05/18 01:57:26;;;;;;;;;20.25;17.25;;;;;7.91;100.00;99023.00;4816694;28;102323;-76
2023/05/18 01:59:54;;;;;;;;;12.75;11.50;;;;;7.95;100.00;99021.63;4822243;28;102144;-76
2023/05/18 02:02:21;;;;;;;;;14.50;13.00;;;;;7.98;100.00;99026.66;4821621;28;102996;-76
2023/05/18 02:04:48;;;;;;;;;12.25;11.75;;;;;7.96;100.00;99026.00;4820661;28;104236;-76
2023/05/18 02:07:15;;;;;;;;;15.00;14.00;;;;;7.92;100.00;99030.06;4752062;28;102709;-76
2023/05/18 02:09:43;;;;;;;;;16.50;14.00;;;;;7.92;100.00;99032.75;4816015;28;102469;-76
2023/05/18 02:12:10;;;;;;;;;17.00;16.50;;;;;7.80;100.00;99038.66;4817128;28;102165;-75
2023/05/18 02:14:37;;;;;;;;;15.00;14.00;;;;;7.88;100.00;99042.16;4815746;28;104128;-74
2023/05/18 02:17:05;;;;;;;;;11.50;11.00;;;;;7.81;100.00;99019.66;4818638;28;101989;-75
2023/05/18 02:19:36;;;;;;;;;11.00;10.00;;;;;7.97;100.00;99035.75;4821569;28;102267;-75
2023/05/18 02:22:05;;;;;;;;;15.75;13.50;;;;;7.88;100.00;99039.47;4818936;28;102307;-73
2023/05/18 02:24:33;;;;;;;;;17.25;12.75;;;;;7.90;100.00;99031.22;4819834;28;104200;-74
2023/05/18 02:27:00;;;;;;;;;12.25;9.25;;;;;7.84;100.00;99024.69;4822429;29;102301;-75
2023/05/18 02:29:27;;;;;;;;;11.00;10.25;;;;;7.84;100.00;99034.59;4816834;28;102394;-74
2023/05/18 02:31:54;;;;;;;;;11.50;9.25;;;;;7.79;100.00;99032.44;4820213;29;102299;-73
2023/05/18 02:34:23;;;;;;;;;12.00;11.00;;;;;7.78;100.00;99046.94;4816425;28;103844;-76
2023/05/18 02:36:50;;;;;;;;;9.75;8.50;;;;;7.80;100.00;99044.03;4822093;28;102117;-76
2023/05/18 02:39:17;;;;;;;;;18.00;16.00;;;;;7.70;100.00;99043.41;4819290;28;101948;-75
2023/05/18 02:41:44;;;;;;;;;14.00;11.00;;;;;7.79;100.00;99051.28;4823332;29;103784;-76
2023/05/18 02:44:11;;;;;;;;;13.00;11.00;;;;;7.79;100.00;99053.16;4820772;28;104154;-75
2023/05/18 02:46:39;;;;;;;;;15.25;12.00;;;;;7.70;100.00;99052.31;4816477;28;103735;-75
2023/05/18 02:49:08;;;;;;;;;18.00;15.00;;;;;7.67;100.00;99041.91;4807850;28;101868;-75
2023/05/18 02:51:37;;;;;;;;;15.25;14.75;;;;;7.68;100.00;99051.66;4821496;29;102375;-75
2023/05/18 02:54:06;;;;;;;;;12.75;11.25;;;;;7.46;100.00;99003.94;4799461;28;103105;-72
2023/05/18 02:56:33;;;;;;;;;17.75;15.25;;;;;7.67;100.00;99049.13;4815079;28;102376;-75
2023/05/18 02:59:02;;;;;;;;;16.00;15.00;;;;;7.55;100.00;99035.19;4807057;29;102297;-75
2023/05/18 03:01:36;;;;;;;;;15.50;15.00;;;;;7.68;100.00;99051.66;4815691;28;107890;-74
2023/05/18 03:04:03;;;;;;;;;13.50;11.75;;;;;7.75;100.00;99068.78;4815404;28;108547;-74
2023/05/18 03:06:31;;;;;;;;;12.50;11.00;;;;;7.74;100.00;99053.66;4818847;29;103034;-75
2023/05/18 03:08:58;;;;;;;;;10.00;9.75;;;;;7.70;100.00;99060.38;4817820;28;102319;-74
2023/05/18 03:11:27;;;;;;;;;14.50;10.75;;;;;7.76;100.00;99064.25;4820170;28;102111;-75
2023/05/18 03:13:54;;;;;;;;;8.25;7.75;;;;;7.78;100.00;99064.94;4816100;28;103394;-76
2023/05/18 03:16:27;;;;;;;;;13.00;12.50;;;;;7.69;100.00;99061.41;4817774;28;102050;-74
2023/05/18 03:18:54;;;;;;;;;14.00;13.50;;;;;7.63;100.00;99059.41;4812844;28;106575;-74
2023/05/18 03:21:21;;;;;;;;;14.50;11.00;;;;;7.68;100.00;99065.09;4809264;28;103216;-75
2023/05/18 03:23:48;;;;;;;;;9.50;9.00;;;;;7.67;100.00;99071.50;4816263;29;104206;-74
2023/05/18 03:26:15;;;;;;;;;15.25;11.00;;;;;7.60;100.00;99075.91;4820023;28;102521;-75
2023/05/18 03:28:42;;;;;;;;;14.25;12.75;;;;;7.56;100.00;99070.00;4815616;28;102745;-74
2023/05/18 03:31:09;;;;;;;;;9.75;8.75;;;;;7.69;100.00;99064.09;4819443;29;102655;-70
2023/05/18 03:33:37;;;;;;;;;8.00;5.00;;;;;7.71;100.00;99064.75;4817828;28;109840;-75
2023/05/18 03:36:07;;;;;;;;;9.00;7.50;;;;;7.73;100.00;99069.97;4819853;28;102381;-75
2023/05/18 03:38:34;;;;;;;;;11.75;10.00;;;;;7.62;100.00;99076.53;4821517;28;102583;-74
2023/05/18 03:41:02;;;;;;;;;14.50;11.75;;;;;7.57;100.00;99068.97;4823556;28;102412;-74
2023/05/18 03:43:31;;;;;;;;;12.25;11.00;;;;;7.61;100.00;99077.56;4820284;29;103072;-75
2023/05/18 03:45:58;;;;;;;;;13.00;10.00;;;;;7.66;100.00;99079.72;4821259;29;102179;-76
2023/05/18 03:48:26;;;;;;;;;13.25;11.00;;;;;7.56;100.00;99086.13;4818503;29;102096;-75
2023/05/18 03:50:54;;;;;;;;;11.25;11.25;;;;;7.52;100.00;99067.84;4822906;28;102373;-76
2023/05/18 03:53:21;;;;;;;;;11.75;10.25;;;;;7.66;100.00;99082.41;4820206;28;103164;-76
2023/05/18 03:55:50;;;;;;;;;12.25;12.00;;;;;7.68;100.00;99088.50;4819934;29;106414;-75
2023/05/18 03:58:21;;;;;;;;;15.00;11.50;;;;;7.63;100.00;99094.38;4819828;29;102296;-74
2023/05/18 04:00:49;;;;;;;;;16.50;14.00;;;;;7.68;100.00;99091.19;4817384;29;102158;-74
2023/05/18 04:03:16;;;;;;;;;14.25;14.25;;;;;7.69;100.00;99096.41;4820376;28;104194;-74
2023/05/18 04:05:44;;;;;;;;;12.25;10.00;;;;;7.72;100.00;99093.34;4819870;28;102445;-74
2023/05/18 04:08:14;;;;;;;;;17.00;13.75;;;;;7.62;100.00;99106.16;4818577;29;102352;-74
2023/05/18 04:10:42;;;;;;;;;14.00;11.50;;;;;7.67;100.00;99109.19;4819523;28;102071;-74
2023/05/18 04:13:10;;;;;;;;;9.50;9.00;;;;;7.70;100.00;99103.44;4821908;29;104228;-75
2023/05/18 04:15:37;;;;;;;;;9.00;8.00;;;;;7.84;100.00;99105.44;4818984;28;101908;-74
2023/05/18 04:18:04;;;;;;;;;11.00;10.00;;;;;7.85;100.00;99112.50;4819456;28;102235;-73
2023/05/18 04:20:31;;;;;;;;;12.00;11.00;;;;;7.78;100.00;99103.47;4822436;28;102443;-74
2023/05/18 04:22:58;;;;;;;;;14.25;10.75;;;;;7.78;100.00;99110.69;4818718;28;104079;-72
2023/05/18 04:25:26;;;;;;;;;11.50;10.75;;;;;7.83;100.00;99114.56;4817872;28;101828;-72
2023/05/18 04:27:55;;;;;;;;;17.25;13.25;;;;;7.76;100.00;99105.47;4817353;28;101877;-72
2023/05/18 04:30:22;;;;;;;;;16.75;12.00;;;;;7.71;100.00;99118.59;4815587;29;102013;-72
2023/05/18 04:32:49;;;;;;;;;12.75;8.50;;;;;7.73;100.00;99113.88;4817489;28;104123;-73
2023/05/18 04:35:17;;;;;;;;;15.75;14.00;;;;;7.83;100.00;99116.41;4818017;28;102090;-73
2023/05/18 04:37:44;;;;;;;;;9.25;7.75;;;;;7.92;100.00;99120.75;4820301;29;102361;-73
2023/05/18 04:40:12;;;;;;;;;10.00;8.75;;;;;7.85;100.00;99123.28;4822782;29;102358;-73
2023/05/18 04:42:44;;;;;;;;;11.25;10.00;;;;;7.86;100.00;99118.75;4819393;28;103964;-71
2023/05/18 04:45:15;;;;;;;;;10.50;10.00;;;;;7.89;100.00;99124.63;4817761;28;102469;-73
2023/05/18 04:47:46;;;;;;;;;12.75;11.00;;;;;7.74;100.00;99126.34;4815814;29;102063;-73
2023/05/18 04:50:16;;;;;;;;;12.50;11.75;;;;;7.72;100.00;99122.97;4821582;29;102558;-73
2023/05/18 04:52:47;;;;;;;;;11.50;9.50;;;;;7.79;100.00;99129.34;4817768;29;103777;-73
2023/05/18 04:55:24;;;;;;;;;8.50;7.00;;;;;7.95;100.00;99131.19;4821099;28;102397;-74
2023/05/18 04:57:55;;;;;;;;;9.25;9.00;;;;;7.86;100.00;99124.97;4817127;28;101941;-74
2023/05/18 05:00:28;;;;;;;;;7.00;7.00;;;;;8.04;100.00;99127.47;4818805;29;102220;-73
2023/05/18 05:02:56;;;;;;;;;7.75;7.00;;;;;8.07;100.00;99133.31;4819185;28;105200;-73
2023/05/18 05:05:25;;;;;;;;;10.50;9.00;;;;;8.02;100.00;99134.84;4822026;28;102107;-73
2023/05/18 05:07:52;;;;;;;;;10.75;8.25;;;;;8.02;100.00;99127.63;4820119;28;101884;-73
2023/05/18 05:10:20;;;;;;;;;6.75;5.50;;;;;8.12;100.00;99132.81;4820322;29;102239;-73
2023/05/18 05:12:49;;;;;;;;;10.75;10.00;;;;;8.11;100.00;99133.81;4821892;28;104068;-73
2023/05/18 05:15:17;;;;;;;;;7.00;5.00;;;;;8.10;100.00;99125.94;4824399;28;102081;-73
2023/05/18 05:17:48;;;;;;;;;11.25;10.50;;;;;8.08;100.00;99129.63;4824957;28;102133;-74
2023/05/18 05:20:15;;;;;;;;;7.50;7.50;;;;;8.17;100.00;99130.44;4824029;29;101985;-74
2023/05/18 05:22:42;;;;;;;;;8.75;6.50;;;;;8.27;100.00;99130.25;4820154;28;104210;-73
2023/05/18 05:25:10;;;;;;;;;7.25;5.00;;;;;8.34;100.00;99131.25;4826743;28;102141;-74
2023/05/18 05:27:37;;;;;;;;;6.75;4.75;;;;;8.45;100.00;99145.22;4818860;28;102380;-74
2023/05/18 05:30:04;;;;;;;;;11.75;9.00;;;;;8.27;100.00;99149.09;4822921;28;102489;-73
2023/05/18 05:32:32;;;;;;;;;6.50;5.50;;;;;8.28;100.00;99156.19;4821618;28;104010;-74
2023/05/18 05:34:59;;;;;;;;;10.00;10.00;;;;;8.34;100.00;99155.50;4823028;29;102136;-73
2023/05/18 05:37:26;;;;;;;;;11.75;10.00;;;;;8.30;100.00;99155.03;4823012;29;102033;-73
2023/05/18 05:39:53;;;;;;;;;12.00;10.00;;;;;8.31;100.00;99142.38;4825879;28;102330;-74
2023/05/18 05:42:20;;;;;;;;;11.25;9.25;;;;;8.34;100.00;99150.13;4819850;29;104004;-73
2023/05/18 05:44:47;;;;;;;;;14.75;12.00;;;;;8.30;99.47;99155.03;4822026;28;102202;-73
2023/05/18 05:47:14;;;;;;;;;13.75;12.25;;;;;8.23;98.48;99153.16;4823243;29;102973;-73
2023/05/18 05:49:41;;;;;;;;;11.50;10.75;;;;;8.20;97.28;99148.09;4823498;28;102313;-72
2023/05/18 05:52:08;;;;;;;;;11.25;9.00;;;;;8.34;97.95;99160.91;4824478;28;104040;-74
2023/05/18 05:54:35;;;;;;;;;11.75;10.00;;;;;8.27;96.62;99162.59;4824856;28;102457;-73
2023/05/18 05:57:02;;;;;;;;;9.50;8.00;;;;;8.31;96.97;99161.25;4824062;28;101785;-73
2023/05/18 05:59:29;;;;;;;;;8.75;8.00;;;;;8.28;94.74;99165.13;4822561;28;102518;-73
2023/05/18 06:01:56;;;;;;;;;9.00;5.75;;;;;8.35;95.56;99178.75;4823410;29;104073;-74
2023/05/18 06:04:23;;;;;;;;;9.00;7.25;;;;;8.26;95.09;99179.75;4821543;29;102255;-74
2023/05/18 06:06:50;;;;;;;;;7.75;6.75;;;;;8.33;94.26;99170.81;4820745;28;102389;-73
2023/05/18 06:09:17;;;;;;;;;5.50;5.00;;;;;8.39;95.48;99189.00;4808107;28;102389;-73
2023/05/18 06:11:44;;;;;;;;;4.75;4.00;;;;;8.60;96.04;99187.59;4821607;29;104231;-74
2023/05/18 06:14:11;;;;;;;;;4.00;4.00;;;;;8.73;94.13;99193.28;4823621;28;102149;-73
2023/05/18 06:16:38;;;;;;;;;5.25;5.00;;;;;8.66;93.79;99190.44;4825451;29;102056;-74
2023/05/18 06:19:06;;;;;;;;;3.00;3.00;;;;;8.72;95.30;99192.44;4822351;28;102294;-74
2023/05/18 06:21:33;;;;;;;;;4.25;3.00;;;;;8.67;94.47;99192.13;4821369;29;104453;-74
2023/05/18 06:24:00;;;;;;;;;4.50;3.00;;;;;8.75;93.41;99192.09;4821452;28;102313;-74
2023/05/18 06:26:27;;;;;;;;;3.00;3.00;;;;;8.73;91.05;99187.91;4819215;28;102166;-74
2023/05/18 06:28:55;;;;;;;;;6.25;4.00;;;;;8.68;90.73;99184.88;4823908;29;102513;-74
2023/05/18 06:31:22;;;;;;;;;3.25;2.00;;;;;8.89;91.20;99198.59;4822553;28;105055;-74
2023/05/18 06:33:49;;;;;;;;;1.75;1.25;;;;;9.05;91.72;99203.09;4819896;28;102195;-74
2023/05/18 06:36:16;;;;;;;;;2.00;2.00;;;;;9.08;90.82;99208.97;4821298;28;102293;-74
2023/05/18 06:38:43;;;;;;;;;2.00;1.00;;;;;9.09;91.24;99210.66;4821626;28;102206;-72
2023/05/18 06:41:10;;;;;;;;;2.50;1.75;;;;;9.04;89.57;99206.78;4825289;28;104101;-74
2023/05/18 06:43:37;;;;;;;;;2.00;1.50;;;;;9.09;89.45;99216.03;4821922;29;101939;-74
2023/05/18 06:46:04;;;;;;;;;1.50;1.50;;;;;9.08;89.26;99213.50;4820823;28;102440;-74
2023/05/18 06:48:31;;;;;;;;;2.00;1.00;;;;;9.23;89.30;99217.16;4820859;28;102047;-73
2023/05/18 06:50:58;;;;;;;;;1.00;1.00;;;;;9.27;86.89;99213.06;4821758;28;103368;-74
2023/05/18 06:53:26;;;;;;;;;1.00;1.00;;;;;9.34;90.45;99219.44;4819726;28;102421;-74
2023/05/18 06:55:53;;;;;;;;;1.00;1.00;;;;;9.48;87.35;99217.81;4822047;28;101889;-72
2023/05/18 06:58:20;;;;;;;;;2.00;1.00;;;;;9.50;91.44;99219.31;4819461;28;102018;-73
2023/05/18 07:00:48;;;;;;;;;2.00;1.25;;;;;9.35;87.26;99219.25;4819655;28;104088;-72
2023/05/18 07:03:15;;;;;;;;;2.00;1.75;;;;;9.45;86.21;99219.03;4823063;29;102191;-71
2023/05/18 07:05:42;;;;;;;;;2.00;1.00;;;;;9.53;86.95;99218.13;4821615;29;101943;-72
2023/05/18 07:08:09;;;;;;;;;1.00;1.00;;;;;9.63;88.33;99219.59;4824127;29;102041;-73
2023/05/18 07:10:36;;;;;;;;;0.50;0.50;;;;;9.62;89.81;99222.44;4818070;29;108859;-72
2023/05/18 07:13:03;;;;;;;;;2.00;2.00;;;;;9.48;89.27;99231.31;4815922;29;102382;-72
2023/05/18 07:15:30;;;;;;;;;1.00;1.00;;;;;9.58;88.95;99223.84;4820257;29;102253;-73
2023/05/18 07:17:57;;;;;;;;;1.50;1.50;;;;;9.57;88.54;99227.53;4823583;28;102454;-73
2023/05/18 07:20:25;;;;;;;;;1.00;1.00;;;;;9.70;88.42;99220.53;4820149;29;104658;-73
2023/05/18 07:22:54;;;;;;;;;1.50;0.50;;;;;9.70;87.50;99230.50;4818710;29;102103;-74
2023/05/18 07:25:22;;;;;;;;;3.00;2.00;;;;;9.41;85.03;99234.72;4820354;28;102029;-73
2023/05/18 07:27:50;;;;;;;;;4.00;3.00;;;;;9.40;87.81;99235.75;4802939;28;102436;-73
2023/05/18 07:30:17;;;;;;;;;2.00;2.00;;;;;9.69;88.35;99240.44;4820785;29;104168;-72
2023/05/18 07:32:45;;;;;;;;;0.50;0.50;;;;;9.90;88.17;99236.25;4820539;29;102524;-73
2023/05/18 07:35:12;;;;;;;;;1.75;1.75;;;;;9.74;83.57;99240.75;4819954;29;101862;-71
2023/05/18 07:37:39;;;;;;;;;2.00;1.75;;;;;9.98;87.66;99241.59;4824608;29;101988;-73
2023/05/18 07:40:08;;;;;;;;;1.00;1.00;;;;;9.90;84.09;99241.66;4820409;29;108616;-73
2023/05/18 07:42:38;;;;;;;;;0.25;0.25;;;;;10.05;85.31;99242.53;4802812;29;102699;-72
2023/05/18 07:45:06;;;;;;;;;1.50;1.50;;;;;9.90;83.10;99244.34;4819453;28;102396;-72
2023/05/18 07:47:33;;;;;;;;;1.25;1.25;;;;;9.82;82.08;99251.47;4820147;28;102236;-72
2023/05/18 07:50:00;;;;;;;;;2.50;2.25;;;;;9.46;81.02;99212.59;4821044;28;104106;-72
2023/05/18 07:52:27;;;;;;;;;2.00;2.00;;;;;9.73;82.80;99257.13;4820621;28;102255;-72
2023/05/18 07:54:58;;;;;;;;;2.25;2.00;;;;;9.72;81.67;99258.16;4822224;28;101937;-72
2023/05/18 07:57:25;;;;;;;;;1.50;0.00;;;;;9.63;79.09;99246.59;4821557;29;102324;-73
2023/05/18 07:59:52;;;;;;;;;2.00;2.00;;;;;9.73;80.25;99246.31;4819693;28;104014;-73
2023/05/18 08:02:19;;;;;;;;;1.25;1.00;;;;;9.84;83.00;99254.88;4822382;29;101825;-73
2023/05/18 08:04:47;;;;;;;;;2.00;1.50;;;;;9.69;86.13;99251.25;4822547;29;102074;-73
2023/05/18 08:07:14;;;;;;;;;1.00;1.00;;;;;9.75;81.74;99238.88;4822278;28;102920;-73
2023/05/18 08:09:41;;;;;;;;;1.00;1.00;;;;;9.85;83.28;99251.16;4819897;28;104037;-71
2023/05/18 08:12:08;;;;;;;;;1.00;1.00;;;;;10.01;82.24;99254.72;4818675;28;102836;-74
2023/05/18 08:14:35;;;;;;;;;2.00;1.25;;;;;9.97;83.76;99248.00;4820236;29;102299;-72
2023/05/18 08:17:03;;;;;;;;;1.00;1.00;;;;;9.93;82.94;99254.78;4817517;28;102136;-72
2023/05/18 08:19:30;;;;;;;;;1.00;1.00;;;;;10.03;82.55;99263.50;4819433;28;104253;-72
2023/05/18 08:21:57;;;;;;;;;1.75;1.00;;;;;10.10;81.66;99253.63;4819378;29;103459;-72
2023/05/18 08:24:24;;;;;;;;;0.25;0.25;;;;;10.18;81.93;99264.38;4821204;28;102165;-72
2023/05/18 08:26:52;;;;;;;;;0.00;0.00;;;;;10.11;81.04;99261.56;4817487;29;102032;-73
2023/05/18 08:29:19;;;;;;;;;0.75;0.00;;;;;10.19;82.94;99261.53;4821784;29;104290;-72
2023/05/18 08:31:46;;;;;;;;;0.00;0.00;;;;;10.15;81.79;99265.63;4821251;29;102289;-72
2023/05/18 08:34:15;;;;;;;;;1.00;1.00;;;;;9.95;80.49;99261.69;4818484;29;103712;-72
2023/05/18 08:36:44;;;;;;;;;1.00;1.00;;;;;10.13;82.69;99261.41;4819920;29;102247;-73
2023/05/18 08:39:11;;;;;;;;;1.75;1.75;;;;;9.92;85.85;99262.06;4817142;29;104212;-72
2023/05/18 08:41:47;;;;;;;;;2.25;2.00;;;;;9.89;78.96;99257.03;4819879;28;102208;-72
2023/05/18 08:44:19;;;;;;;;;2.00;1.75;;;;;10.05;80.34;99266.84;4816080;28;103930;-72
2023/05/18 08:46:50;;;;;;;;;1.75;1.00;;;;;10.06;79.48;99263.97;4820374;28;102344;-73
2023/05/18 08:49:19;;;;;;;;;1.00;1.00;;;;;10.11;81.12;99266.13;4821359;28;108670;-72
2023/05/18 08:51:53;;;;;;;;;2.00;1.75;;;;;10.06;83.23;99266.66;4820851;28;102093;-72
2023/05/18 08:54:21;;;;;;;;;2.00;2.00;;;;;10.03;83.74;99266.19;4814240;28;101949;-72
2023/05/18 08:56:51;;;;;;;;;1.50;1.00;;;;;10.26;80.76;99265.19;4824105;28;102214;-73
2023/05/18 08:59:23;;;;;;;;;1.75;1.75;;;;;10.24;79.21;99264.50;4804323;29;108795;-73
2023/05/18 09:01:51;;;;;;;;;2.00;2.00;;;;;10.44;77.76;99267.56;4816427;29;102135;-71
2023/05/18 09:04:19;;;;;;;;;1.00;1.00;;;;;10.50;79.24;99265.94;4825279;29;102034;-72
2023/05/18 09:06:48;;;;;;;;;1.00;1.00;;;;;10.68;80.45;99263.75;4821451;29;102426;-73
2023/05/18 09:09:17;;;;;;;;;5.00;2.75;;;;;10.39;77.57;99264.56;4821138;29;110637;-73
2023/05/18 09:11:46;;;;;;;;;2.25;1.50;;;;;10.39;77.99;99266.41;4817905;29;103351;-73
2023/05/18 09:14:13;;;;;;;;;1.00;1.00;;;;;10.38;77.88;99268.28;4814910;29;102065;-74
2023/05/18 09:16:40;;;;;;;;;1.00;1.00;;;;;10.64;79.18;99267.84;4819138;28;102033;-73
2023/05/18 09:19:07;;;;;;;;;2.25;2.00;;;;;10.41;78.05;99261.66;4818774;29;104030;-73
2023/05/18 09:21:34;;;;;;;;;4.00;1.75;;;;;10.39;77.91;99266.41;4818114;29;102203;-73
2023/05/18 09:24:02;;;;;;;;;3.00;1.50;;;;;10.32;78.17;99268.16;4815016;28;102322;-73
2023/05/18 09:26:29;;;;;;;;;2.00;2.00;;;;;10.48;77.61;99262.63;4817521;28;102434;-73
2023/05/18 09:28:58;;;;;;;;;2.00;1.00;;;;;10.70;78.80;99257.13;4817732;28;104032;-73
2023/05/18 09:31:26;;;;;;;;;1.75;1.75;;;;;10.66;78.32;99266.66;4817368;28;101900;-72
2023/05/18 09:33:53;;;;;;;;;2.00;2.00;;;;;10.66;76.67;99263.94;4816264;29;102014;-72
2023/05/18 09:36:25;;;;;;;;;2.00;1.50;;;;;10.45;76.35;99266.50;4821155;29;102390;-71
2023/05/18 09:38:52;;;;;;;;;2.00;1.75;;;;;10.44;74.40;99262.16;4769348;28;109096;-72
2023/05/18 09:41:20;;;;;;;;;3.00;3.00;;;;;10.25;79.00;99266.22;4822591;28;101974;-73
2023/05/18 09:43:47;;;;;;;;;1.75;1.00;;;;;10.47;78.76;99271.75;4817361;28;102528;-73
2023/05/18 09:46:14;;;;;;;;;1.25;1.25;;;;;10.61;80.47;99266.34;4817445;29;102119;-72
2023/05/18 09:48:44;;;;;;;;;1.75;1.00;;;;;10.46;78.74;99275.47;4820818;28;104120;-71
2023/05/18 09:51:15;;;;;;;;;2.75;2.00;;;;;10.25;74.39;99278.88;4818243;28;102359;-74
2023/05/18 09:53:48;;;;;;;;;2.00;2.00;;;;;10.31;76.14;99277.31;4818397;29;102175;-73
2023/05/18 09:56:16;;;;;;;;;0.00;0.00;;;;;10.44;79.75;99272.97;4822005;28;102368;-73
2023/05/18 09:58:44;;;;;;;;;1.50;1.25;;;;;10.24;75.86;99279.88;4822927;29;104012;-73
2023/05/18 10:01:12;;;;;;;;;1.00;1.00;;;;;10.10;78.15;99253.63;4822819;28;102082;-73
2023/05/18 10:03:39;;;;;;;;;1.25;1.25;;;;;10.07;76.08;99275.63;4824447;29;102132;-73
2023/05/18 10:06:13;;;;;;;;;2.00;2.00;;;;;9.85;76.11;99264.66;4824155;28;102355;-73
2023/05/18 10:08:40;;;;;;;;;1.00;1.00;;;;;10.17;77.49;99276.25;4818226;28;104030;-73
2023/05/18 10:11:08;;;;;;;;;2.00;1.00;;;;;10.37;79.36;99277.41;4823250;29;102284;-73
2023/05/18 10:13:35;;;;;;;;;0.50;0.50;;;;;10.55;80.77;99269.78;4823670;28;102254;-73
2023/05/18 10:16:04;;;;;;;;;0.75;0.75;;;;;10.55;78.60;99275.19;4823626;29;102071;-73
2023/05/18 10:18:34;;;;;;;;;1.00;1.00;;;;;10.55;79.65;99275.19;4824435;28;104052;-72
2023/05/18 10:21:04;;;;;;;;;2.00;1.75;;;;;10.48;77.37;99260.75;4823499;28;102348;-73
2023/05/18 10:23:34;;;;;;;;;1.75;1.25;;;;;10.45;75.14;99273.78;4819632;29;102008;-71
2023/05/18 10:26:06;;;;;;;;;1.50;1.00;;;;;10.46;77.10;99276.31;4790055;29;103965;-72
2023/05/18 10:28:48;;;;;;;;;1.00;1.00;;;;;10.74;78.67;99273.81;4822349;28;104038;-73
2023/05/18 10:31:16;;;;;;;;;2.00;1.00;;;;;10.82;76.12;99259.34;4821110;28;102055;-72
2023/05/18 10:33:45;;;;;;;;;0.00;0.00;;;;;11.00;79.28;99276.06;4821852;28;102910;-72
2023/05/18 10:36:12;;;;;;;;;1.00;1.00;;;;;10.93;76.03;99267.03;4823665;28;102325;-73
2023/05/18 10:38:43;;;;;;;;;2.00;2.00;;;;;10.81;77.84;99273.94;4821773;28;104129;-73
2023/05/18 10:41:11;;;;;;;;;1.00;0.75;;;;;10.86;77.17;99266.06;4821277;28;101985;-73
2023/05/18 10:43:40;;;;;;;;;4.00;1.75;;;;;10.81;79.76;99268.53;4820092;28;102162;-73
2023/05/18 10:46:08;;;;;;;;;2.25;2.00;;;;;10.70;78.35;99267.09;4824500;29;102325;-73
2023/05/18 10:48:39;;;;;;;;;3.00;2.00;;;;;10.72;77.87;99265.03;4820425;29;105024;-73
2023/05/18 10:51:07;;;;;;;;;4.00;2.25;;;;;10.65;78.74;99270.38;4824166;29;101807;-73
2023/05/18 10:53:35;;;;;;;;;4.75;3.75;;;;;10.55;80.22;99263.53;4820851;28;102249;-73
2023/05/18 10:56:03;;;;;;;;;4.50;3.75;;;;;10.54;80.89;99268.09;4821364;28;102076;-74
2023/05/18 10:58:31;;;;;;;;;2.00;2.00;;;;;10.61;79.86;99263.66;4805677;29;104153;-73
2023/05/18 11:01:02;;;;;;;;;3.00;2.25;;;;;10.48;78.47;99260.75;4823976;28;102139;-73
2023/05/18 11:03:31;;;;;;;;;3.00;3.00;;;;;10.39;82.52;99266.41;4817754;28;102733;-73
2023/05/18 11:06:10;;;;;;;;;2.00;2.00;;;;;10.58;82.72;99264.00;4820650;28;102019;-72
2023/05/18 11:08:48;;;;;;;;;2.00;1.00;;;;;10.78;80.13;99260.75;4799261;28;108758;-72
2023/05/18 11:11:15;;;;;;;;;1.00;1.00;;;;;10.87;81.07;99256.94;4820237;29;102634;-72
2023/05/18 11:13:49;;;;;;;;;1.00;1.00;;;;;10.89;80.83;99252.19;4817517;29;102174;-74
2023/05/18 11:16:17;;;;;;;;;1.00;1.00;;;;;10.89;79.04;99250.34;4822163;28;102504;-74
2023/05/18 11:18:45;;;;;;;;;1.00;1.00;;;;;10.82;82.08;99237.72;4819152;29;104073;-73
2023/05/18 11:21:27;;;;;;;;;1.25;1.25;;;;;11.10;79.89;99258.53;4819263;29;102566;-73
2023/05/18 11:24:24;;;;;;;;;1.75;1.00;;;;;11.07;80.11;99263.47;4822816;28;102293;-73
2023/05/18 11:26:53;;;;;;;;;1.75;1.00;;;;;10.65;81.44;99266.81;4816003;29;102456;-73
2023/05/18 11:29:33;;;;;;;;;1.00;1.00;;;;;10.53;80.62;99271.84;4819957;29;104092;-73
2023/05/18 11:32:00;;;;;;;;;1.50;1.50;;;;;10.51;82.53;99268.47;4820521;29;101958;-73